createdAt,value
2018-05-10T00:01:23.416Z,91.58
2018-05-10T00:03:51.055Z,91.55
2018-05-10T00:06:18.640Z,90.80
2018-05-10T00:08:46.252Z,90.84
2018-05-10T00:11:13.832Z,91.38
2018-05-10T00:13:41.416Z,91.08
2018-05-10T00:16:09.029Z,90.71
2018-05-10T00:18:36.688Z,90.75
2018-05-10T00:21:04.271Z,90.86
2018-05-10T00:23:31.908Z,91.18
2018-05-10T00:25:59.498Z,91.55
2018-05-10T00:28:27.121Z,91.80
2018-05-10T00:30:54.736Z,91.18
2018-05-10T00:33:22.331Z,91.01
2018-05-10T00:35:49.910Z,91.00
2018-05-10T00:38:17.533Z,90.82
2018-05-10T00:40:45.123Z,90.92
2018-05-10T00:43:12.713Z,91.41
2018-05-10T00:45:40.329Z,91.34
2018-05-10T00:48:07.918Z,91.51
2018-05-10T00:50:35.503Z,91.25
2018-05-10T00:53:03.143Z,91.54
2018-05-10T00:55:36.446Z,91.63
2018-05-10T00:58:04.094Z,91.24
2018-05-10T01:00:31.684Z,91.50
2018-05-10T01:02:59.309Z,91.70
2018-05-10T01:05:26.931Z,91.46
2018-05-10T01:07:54.530Z,92.21
2018-05-10T01:10:22.113Z,91.90
2018-05-10T01:12:49.734Z,91.29
2018-05-10T01:15:17.324Z,91.53
2018-05-10T01:17:44.946Z,91.66
2018-05-10T01:20:12.592Z,91.33
2018-05-10T01:22:40.185Z,91.55
2018-05-10T01:25:07.898Z,91.68
2018-05-10T01:27:35.528Z,91.36
2018-05-10T01:30:03.144Z,91.33
2018-05-10T01:32:30.728Z,91.47
2018-05-10T01:35:10.057Z,92.02
2018-05-10T01:37:37.635Z,91.81
2018-05-10T01:40:05.216Z,91.75
2018-05-10T01:42:32.852Z,91.66
2018-05-10T01:45:00.462Z,91.80
2018-05-10T01:47:28.037Z,92.03
2018-05-10T01:49:55.660Z,92.31
2018-05-10T01:52:23.240Z,92.93
2018-05-10T01:54:50.837Z,93.58
2018-05-10T01:57:18.444Z,94.05
2018-05-10T01:59:46.029Z,94.19
2018-05-10T02:02:13.616Z,94.61
2018-05-10T02:04:41.231Z,95.34
2018-05-10T02:07:08.826Z,96.02
2018-05-10T02:09:36.415Z,96.54
2018-05-10T02:12:04.083Z,96.98
2018-05-10T02:14:31.673Z,97.55
2018-05-10T02:16:59.265Z,98.25
2018-05-10T02:19:26.889Z,98.71
2018-05-10T02:21:54.476Z,99.15
2018-05-10T02:24:22.078Z,99.70
2018-05-10T02:26:49.708Z,99.60
2018-05-10T02:29:17.289Z,99.87
2018-05-10T02:31:44.879Z,100.00
2018-05-10T02:34:12.514Z,100.00
2018-05-10T02:36:40.106Z,100.00
2018-05-10T02:39:07.693Z,100.00
2018-05-10T02:41:35.351Z,100.00
2018-05-10T02:44:02.939Z,100.00
2018-05-10T02:46:30.525Z,100.00
2018-05-10T02:48:58.147Z,100.00
2018-05-10T02:51:25.723Z,100.00
2018-05-10T02:53:53.317Z,100.00
2018-05-10T02:56:20.949Z,100.00
2018-05-10T02:58:48.531Z,100.00
2018-05-10T03:01:16.145Z,100.00
2018-05-10T03:03:43.786Z,100.00
2018-05-10T03:06:11.434Z,100.00
2018-05-10T03:08:39.025Z,100.00
2018-05-10T03:11:06.666Z,100.00
2018-05-10T03:13:34.257Z,100.00
2018-05-10T03:16:01.859Z,100.00
2018-05-10T03:18:29.533Z,100.00
2018-05-10T03:20:57.129Z,100.00
2018-05-10T03:23:24.719Z,100.00
2018-05-10T03:25:52.396Z,100.00
2018-05-10T03:28:20.005Z,100.00
2018-05-10T03:30:47.607Z,100.00
2018-05-10T03:33:15.285Z,100.00
2018-05-10T03:35:42.859Z,100.00
2018-05-10T03:38:10.448Z,100.00
2018-05-10T03:40:38.065Z,100.00
2018-05-10T03:43:05.657Z,99.18
2018-05-10T03:45:33.236Z,98.80
2018-05-10T03:48:00.860Z,99.96
2018-05-10T03:50:28.449Z,100.00
2018-05-10T03:52:56.052Z,100.00
2018-05-10T03:55:23.690Z,100.00
2018-05-10T03:57:51.271Z,100.00
2018-05-10T04:00:18.870Z,100.00
2018-05-10T04:06:15.135Z,100.00
2018-05-10T04:08:54.441Z,100.00
2018-05-10T04:11:25.802Z,100.00
2018-05-10T04:13:53.399Z,100.00
2018-05-10T04:16:21.019Z,100.00
2018-05-10T04:18:48.653Z,100.00
2018-05-10T04:21:16.249Z,100.00
2018-05-10T04:23:43.862Z,99.86
2018-05-10T04:26:11.444Z,98.95
2018-05-10T04:28:39.056Z,98.94
2018-05-10T04:31:06.671Z,98.55
2018-05-10T04:33:34.255Z,98.36
2018-05-10T04:36:01.840Z,98.29
2018-05-10T04:38:29.672Z,99.01
2018-05-10T04:40:57.254Z,99.26
2018-05-10T04:43:24.857Z,98.11
2018-05-10T04:45:52.506Z,98.80
2018-05-10T04:48:20.100Z,98.13
2018-05-10T04:50:47.705Z,98.34
2018-05-10T04:53:15.336Z,97.19
2018-05-10T04:55:42.930Z,97.68
2018-05-10T04:58:10.516Z,96.98
2018-05-10T05:00:38.137Z,96.61
2018-05-10T05:03:05.727Z,96.45
2018-05-10T05:05:33.316Z,96.16
2018-05-10T05:08:00.963Z,96.42
2018-05-10T05:10:28.546Z,96.60
2018-05-10T05:12:56.180Z,96.54
2018-05-10T05:15:23.846Z,96.75
2018-05-10T05:17:52.420Z,97.01
2018-05-10T05:20:20.007Z,96.59
2018-05-10T05:22:47.629Z,96.58
2018-05-10T05:25:15.213Z,96.05
2018-05-10T05:27:42.813Z,95.55
2018-05-10T05:30:10.437Z,95.62
2018-05-10T05:32:38.054Z,95.87
2018-05-10T05:35:05.635Z,95.55
2018-05-10T05:37:33.267Z,96.89
2018-05-10T05:40:00.864Z,96.44
2018-05-10T05:42:28.446Z,95.33
2018-05-10T05:44:56.064Z,94.51
2018-05-10T05:47:23.643Z,94.13
2018-05-10T05:49:51.240Z,94.08
2018-05-10T05:52:18.860Z,92.86
2018-05-10T05:54:46.447Z,91.41
2018-05-10T05:57:14.043Z,92.04
2018-05-10T05:59:41.669Z,87.82
2018-05-10T06:02:09.243Z,85.24
2018-05-10T06:04:36.872Z,82.94
2018-05-10T06:07:04.496Z,78.73
2018-05-10T06:09:32.088Z,71.70
2018-05-10T06:11:59.671Z,67.27
2018-05-10T06:14:27.279Z,64.14
2018-05-10T06:16:54.865Z,64.88
2018-05-10T06:19:22.452Z,62.08
2018-05-10T06:21:50.112Z,61.46
2018-05-10T06:24:17.690Z,61.18
2018-05-10T06:26:45.275Z,56.30
2018-05-10T06:29:13.040Z,56.14
2018-05-10T06:31:40.620Z,54.86
2018-05-10T06:34:08.203Z,57.67
2018-05-10T06:36:35.872Z,63.80
2018-05-10T06:39:03.543Z,65.11
2018-05-10T06:41:31.203Z,64.55
2018-05-10T06:43:58.806Z,62.01
2018-05-10T06:46:26.387Z,62.17
2018-05-10T06:48:53.958Z,57.46
2018-05-10T06:51:21.587Z,58.02
2018-05-10T06:53:49.172Z,57.72
2018-05-10T06:56:16.761Z,53.66
2018-05-10T06:58:44.369Z,51.51
2018-05-10T07:01:11.951Z,49.67
2018-05-10T07:03:39.541Z,47.00
2018-05-10T07:06:07.163Z,46.37
2018-05-10T07:08:35.177Z,49.48
2018-05-10T07:11:02.821Z,50.28
2018-05-10T07:13:30.422Z,54.26
2018-05-10T07:15:57.992Z,56.89
2018-05-10T07:18:25.668Z,59.54
2018-05-10T07:20:53.296Z,61.22
2018-05-10T07:23:20.873Z,61.41
2018-05-10T07:25:48.452Z,60.23
2018-05-10T07:28:16.064Z,60.76
2018-05-10T07:30:43.646Z,61.10
2018-05-10T07:33:11.214Z,63.93
2018-05-10T07:35:38.908Z,63.18
2018-05-10T07:38:06.739Z,63.10
2018-05-10T07:40:34.376Z,61.81
2018-05-10T07:43:02.013Z,55.43
2018-05-10T07:45:29.677Z,47.28
2018-05-10T07:47:57.304Z,50.35
2018-05-10T07:50:24.923Z,47.37
2018-05-10T07:52:52.508Z,48.44
2018-05-10T07:55:20.100Z,50.24
2018-05-10T07:57:47.725Z,52.69
2018-05-10T08:00:15.311Z,52.42
2018-05-10T08:02:42.896Z,54.90
2018-05-10T08:05:10.523Z,50.04
2018-05-10T08:07:38.108Z,44.75
2018-05-10T08:10:05.804Z,43.88
2018-05-10T08:12:33.338Z,40.11
2018-05-10T08:15:00.906Z,43.01
2018-05-10T08:17:28.503Z,46.61
2018-05-10T08:19:56.407Z,45.16
2018-05-10T08:22:24.785Z,47.86
2018-05-10T08:24:52.389Z,50.75
2018-05-10T08:27:20.002Z,50.57
2018-05-10T08:29:49.603Z,49.99
2018-05-10T08:32:17.200Z,51.57
2018-05-10T08:34:44.827Z,52.48
2018-05-10T08:37:12.408Z,53.25
2018-05-10T08:39:39.991Z,53.48
2018-05-10T08:42:07.611Z,53.92
2018-05-10T08:44:35.195Z,56.60
2018-05-10T08:47:02.845Z,55.50
2018-05-10T08:49:30.520Z,54.87
2018-05-10T08:51:58.170Z,54.99
2018-05-10T08:54:25.718Z,55.05
2018-05-10T08:56:53.331Z,52.87
2018-05-10T08:59:20.923Z,51.04
2018-05-10T09:01:48.475Z,51.59
2018-05-10T09:04:16.112Z,53.20
2018-05-10T09:06:43.682Z,54.62
2018-05-10T09:09:11.299Z,53.89
2018-05-10T09:11:38.872Z,56.19
2018-05-10T09:14:06.438Z,57.72
2018-05-10T09:16:34.040Z,57.81
2018-05-10T09:19:01.620Z,58.78
2018-05-10T09:21:29.209Z,58.15
2018-05-10T09:23:56.829Z,57.43
2018-05-10T09:26:24.413Z,58.38
2018-05-10T09:28:52.020Z,57.34
2018-05-10T09:31:19.637Z,57.48
2018-05-10T09:33:47.253Z,56.74
2018-05-10T09:36:14.841Z,57.62
2018-05-10T09:38:42.465Z,56.77
2018-05-10T09:41:10.124Z,55.50
2018-05-10T09:43:37.716Z,57.54
2018-05-10T09:46:05.432Z,59.68
2018-05-10T09:48:32.972Z,60.95
2018-05-10T09:51:00.560Z,63.26
2018-05-10T09:53:28.179Z,63.90
2018-05-10T09:55:55.771Z,62.76
2018-05-10T09:58:23.350Z,65.45
2018-05-10T10:00:50.965Z,66.52
2018-05-10T10:03:18.557Z,65.37
2018-05-10T10:05:46.134Z,65.14
2018-05-10T10:08:13.772Z,66.30
2018-05-10T10:10:41.348Z,66.54
2018-05-10T10:13:08.928Z,64.40
2018-05-10T10:15:36.621Z,64.99
2018-05-10T10:18:04.199Z,62.72
2018-05-10T10:20:31.771Z,62.82
2018-05-10T10:22:59.393Z,64.50
2018-05-10T10:25:26.975Z,64.35
2018-05-10T10:27:54.559Z,62.61
2018-05-10T10:30:22.174Z,63.28
2018-05-10T10:32:49.756Z,61.05
2018-05-10T10:35:17.353Z,62.30
2018-05-10T10:37:44.997Z,58.94
2018-05-10T10:40:12.648Z,59.12
2018-05-10T10:42:40.211Z,57.07
2018-05-10T10:45:07.820Z,51.25
2018-05-10T10:47:35.417Z,50.02
2018-05-10T10:50:03.007Z,50.85
2018-05-10T10:52:30.631Z,52.01
2018-05-10T10:54:58.212Z,54.16
2018-05-10T10:57:25.796Z,52.11
2018-05-10T10:59:53.434Z,53.78
2018-05-10T11:02:21.032Z,52.50
2018-05-10T11:04:48.752Z,52.00
2018-05-10T11:07:16.415Z,53.49
2018-05-10T11:09:43.997Z,52.61
2018-05-10T11:12:11.580Z,57.58
2018-05-10T11:14:39.230Z,56.10
2018-05-10T11:17:06.852Z,52.53
2018-05-10T11:19:34.457Z,52.08
2018-05-10T11:22:02.081Z,52.88
2018-05-10T11:24:29.665Z,49.10
2018-05-10T11:26:57.348Z,52.52
2018-05-10T11:29:25.077Z,50.61
2018-05-10T11:31:52.660Z,49.49
2018-05-10T11:34:20.257Z,51.11
2018-05-10T11:36:47.956Z,50.44
2018-05-10T11:39:15.538Z,55.72
2018-05-10T11:41:43.130Z,57.99
2018-05-10T11:44:10.781Z,61.93
2018-05-10T11:46:38.413Z,63.06
2018-05-10T11:49:06.017Z,65.36
2018-05-10T11:51:33.729Z,65.52
2018-05-10T11:54:01.314Z,65.44
2018-05-10T11:56:28.925Z,64.34
2018-05-10T11:58:56.540Z,64.55
2018-05-10T12:01:24.114Z,62.26
2018-05-10T12:03:51.679Z,61.91
2018-05-10T12:06:19.351Z,59.90
2018-05-10T12:08:46.948Z,59.63
2018-05-10T12:11:14.532Z,58.25
2018-05-10T12:13:42.150Z,58.08
2018-05-10T12:16:09.754Z,54.03
2018-05-10T12:18:37.337Z,50.98
2018-05-10T12:21:04.936Z,48.83
2018-05-10T12:23:32.515Z,49.54
2018-05-10T12:26:00.095Z,52.71
2018-05-10T12:28:27.716Z,52.67
2018-05-10T12:30:55.334Z,53.98
2018-05-10T12:33:22.913Z,50.67
2018-05-10T12:35:50.530Z,49.61
2018-05-10T12:38:18.105Z,50.60
2018-05-10T12:40:45.677Z,49.45
2018-05-10T12:43:13.281Z,52.86
2018-05-10T12:45:40.861Z,49.88
2018-05-10T12:48:08.438Z,52.20
2018-05-10T12:50:36.082Z,52.91
2018-05-10T12:53:03.664Z,54.18
2018-05-10T12:55:31.261Z,53.55
2018-05-10T12:57:58.912Z,53.75
2018-05-10T13:00:26.499Z,55.51
2018-05-10T13:02:54.561Z,55.86
2018-05-10T13:05:22.095Z,55.03
2018-05-10T13:07:49.685Z,54.89
2018-05-10T13:10:17.272Z,52.07
2018-05-10T13:12:44.897Z,53.08
2018-05-10T13:15:12.484Z,55.06
2018-05-10T13:17:40.071Z,54.88
2018-05-10T13:20:07.700Z,56.01
2018-05-10T13:22:35.278Z,57.15
2018-05-10T13:25:02.857Z,58.72
2018-05-10T13:27:30.473Z,59.14
2018-05-10T13:29:58.039Z,59.73
2018-05-10T13:32:25.653Z,60.45
2018-05-10T13:34:53.267Z,61.31
2018-05-10T13:37:20.849Z,60.60
2018-05-10T13:39:48.425Z,61.19
2018-05-10T13:42:16.041Z,60.11
2018-05-10T13:44:43.619Z,59.01
2018-05-10T13:47:11.394Z,59.24
2018-05-10T13:49:38.869Z,60.49
2018-05-10T13:52:06.444Z,60.50
2018-05-10T13:54:34.027Z,61.33
2018-05-10T13:57:01.641Z,61.63
2018-05-10T13:59:29.222Z,62.58
2018-05-10T14:01:56.790Z,62.85
2018-05-10T14:04:24.450Z,63.45
2018-05-10T14:06:52.024Z,63.77
2018-05-10T14:09:19.608Z,63.93
2018-05-10T14:11:47.213Z,64.25
2018-05-10T14:14:14.772Z,65.17
2018-05-10T14:16:42.343Z,66.01
2018-05-10T14:19:09.959Z,67.38
2018-05-10T14:21:37.554Z,67.02
2018-05-10T14:24:05.111Z,67.50
2018-05-10T14:26:32.757Z,67.58
2018-05-10T14:29:00.332Z,67.22
2018-05-10T14:31:27.888Z,67.39
2018-05-10T14:33:55.504Z,67.62
2018-05-10T14:36:23.090Z,66.65
2018-05-10T14:38:50.800Z,66.74
2018-05-10T14:41:18.444Z,67.06
2018-05-10T14:43:46.001Z,67.18
2018-05-10T14:46:13.620Z,67.27
2018-05-10T14:48:41.228Z,66.81
2018-05-10T14:51:08.797Z,66.48
2018-05-10T14:53:36.424Z,66.82
2018-05-10T14:56:04.033Z,66.78
2018-05-10T14:58:31.685Z,66.53
2018-05-10T15:00:59.277Z,66.78
2018-05-10T15:03:26.892Z,67.73
2018-05-10T15:05:54.483Z,66.75
2018-05-10T15:08:22.152Z,68.43
2018-05-10T15:10:49.789Z,67.52
2018-05-10T15:13:17.380Z,68.49
2018-05-10T15:15:44.943Z,70.31
2018-05-10T15:18:12.545Z,72.61
2018-05-10T15:20:40.105Z,74.68
2018-05-10T15:23:07.685Z,77.08
2018-05-10T15:25:35.286Z,79.73
2018-05-10T15:28:02.859Z,80.97
2018-05-10T15:30:30.429Z,82.03
2018-05-10T15:32:58.082Z,83.49
2018-05-10T15:35:25.652Z,84.20
2018-05-10T15:37:53.229Z,83.61
2018-05-10T15:40:20.888Z,84.78
2018-05-10T15:42:48.473Z,86.05
2018-05-10T15:45:16.058Z,85.90
2018-05-10T15:47:43.677Z,85.17
2018-05-10T15:50:11.427Z,84.95
2018-05-10T15:52:38.988Z,86.45
2018-05-10T15:55:06.617Z,88.69
2018-05-10T15:57:34.281Z,91.52
2018-05-10T16:00:01.873Z,90.73
2018-05-10T16:02:29.485Z,92.03
2018-05-10T16:04:57.060Z,92.01
2018-05-10T16:07:24.645Z,91.51
2018-05-10T16:09:52.485Z,92.87
2018-05-10T16:12:20.073Z,94.52
2018-05-10T16:14:47.843Z,94.52
2018-05-10T16:17:15.486Z,94.42
2018-05-10T16:19:43.068Z,94.19
2018-05-10T16:22:10.661Z,94.51
2018-05-10T16:24:38.269Z,94.71
2018-05-10T16:27:05.867Z,94.82
2018-05-10T16:29:33.444Z,94.65
2018-05-10T16:32:01.178Z,94.87
2018-05-10T16:34:29.005Z,94.33
2018-05-10T16:36:56.575Z,93.29
2018-05-10T16:39:24.219Z,94.26
2018-05-10T16:41:52.021Z,94.80
2018-05-10T16:44:19.752Z,94.71
2018-05-10T16:46:47.543Z,95.02
2018-05-10T16:49:15.297Z,95.59
2018-05-10T16:51:42.886Z,96.46
2018-05-10T16:54:10.498Z,96.92
2018-05-10T16:56:38.194Z,97.07
2018-05-10T16:59:05.852Z,96.22
2018-05-10T17:01:33.534Z,95.56
2018-05-10T17:04:01.196Z,95.98
2018-05-10T17:06:28.785Z,95.78
2018-05-10T17:08:56.414Z,95.47
2018-05-10T17:11:24.312Z,96.22
2018-05-10T17:13:51.879Z,96.88
2018-05-10T17:16:19.710Z,97.55
2018-05-10T17:18:47.298Z,97.98
2018-05-10T17:21:14.883Z,98.78
2018-05-10T17:23:42.485Z,98.64
2018-05-10T17:26:10.045Z,98.17
2018-05-10T17:28:37.804Z,98.97
2018-05-10T17:31:05.463Z,99.31
2018-05-10T17:33:33.131Z,98.98
2018-05-10T17:36:00.803Z,98.30
2018-05-10T17:38:28.468Z,98.91
2018-05-10T17:40:56.037Z,99.23
2018-05-10T17:43:23.611Z,99.27
2018-05-10T17:45:51.220Z,99.43
2018-05-10T17:48:18.858Z,99.51
2018-05-10T17:50:46.391Z,99.80
2018-05-10T17:53:14.029Z,99.86
2018-05-10T17:55:41.608Z,100.00
2018-05-10T17:58:09.186Z,100.00
2018-05-10T18:00:37.095Z,100.00
2018-05-10T18:03:04.687Z,100.00
2018-05-10T18:05:32.272Z,100.00
2018-05-10T18:07:59.908Z,100.00
2018-05-10T18:10:27.478Z,100.00
2018-05-10T18:12:55.059Z,100.00
2018-05-10T18:15:22.789Z,100.00
2018-05-10T18:17:50.370Z,100.00
2018-05-10T18:20:17.943Z,99.92
2018-05-10T18:22:45.561Z,100.00
2018-05-10T18:25:13.152Z,100.00
2018-05-10T18:27:40.744Z,99.56
2018-05-10T18:30:08.359Z,98.84
2018-05-10T18:32:35.924Z,98.33
2018-05-10T18:35:03.504Z,99.48
2018-05-10T18:37:31.145Z,100.00
2018-05-10T18:39:58.732Z,100.00
2018-05-10T18:42:26.565Z,100.00
2018-05-10T18:44:54.207Z,100.00
2018-05-10T18:47:21.800Z,100.00
2018-05-10T18:49:49.386Z,100.00
2018-05-10T18:52:17.015Z,100.00
2018-05-10T18:54:44.673Z,100.00
2018-05-10T18:57:12.218Z,100.00
2018-05-10T18:59:39.833Z,100.00
2018-05-10T19:02:07.424Z,100.00
2018-05-10T19:04:35.018Z,100.00
2018-05-10T19:07:02.683Z,100.00
2018-05-10T19:09:30.271Z,100.00
2018-05-10T19:11:57.869Z,100.00
2018-05-10T19:14:25.492Z,100.00
2018-05-10T19:16:54.029Z,100.00
2018-05-10T19:19:21.623Z,100.00
2018-05-10T19:21:49.239Z,100.00
2018-05-10T19:24:16.814Z,100.00
2018-05-10T19:26:44.402Z,100.00
2018-05-10T19:29:12.298Z,100.00
2018-05-10T19:31:39.913Z,100.00
2018-05-10T19:34:07.496Z,100.00
2018-05-10T19:36:35.143Z,100.00
2018-05-10T19:39:02.722Z,100.00
2018-05-10T19:41:30.314Z,100.00
2018-05-10T19:43:57.928Z,100.00
2018-05-10T19:46:25.515Z,100.00
2018-05-10T19:48:53.113Z,100.00
2018-05-10T19:51:20.749Z,100.00
2018-05-10T19:53:48.348Z,100.00
2018-05-10T19:56:15.941Z,100.00
2018-05-10T19:58:43.560Z,100.00
2018-05-10T20:01:11.134Z,100.00
2018-05-10T20:03:38.724Z,100.00
2018-05-10T20:06:06.336Z,100.00
2018-05-10T20:08:33.969Z,100.00
2018-05-10T20:11:01.540Z,100.00
2018-05-10T20:13:29.161Z,100.00
2018-05-10T20:15:56.754Z,100.00
2018-05-10T20:18:24.331Z,100.00
2018-05-10T20:20:51.943Z,100.00
2018-05-10T20:23:19.523Z,100.00
2018-05-10T20:25:47.103Z,100.00
2018-05-10T20:28:14.732Z,100.00
2018-05-10T20:33:10.682Z,100.00
2018-05-10T20:35:38.312Z,100.00
2018-05-10T20:38:05.901Z,100.00
2018-05-10T20:40:33.486Z,100.00
2018-05-10T20:43:01.147Z,100.00
2018-05-10T20:45:28.727Z,100.00
2018-05-10T20:47:57.100Z,100.00
2018-05-10T20:50:24.718Z,100.00
2018-05-10T20:52:52.331Z,100.00
2018-05-10T20:55:19.913Z,100.00
2018-05-10T20:57:47.520Z,100.00
2018-05-10T21:00:15.144Z,100.00
2018-05-10T21:02:42.732Z,100.00
2018-05-10T21:05:10.364Z,100.00
2018-05-10T21:07:37.948Z,100.00
2018-05-10T21:10:05.571Z,100.00
2018-05-10T21:12:41.057Z,100.00
2018-05-10T21:15:08.657Z,100.00
2018-05-10T21:17:36.265Z,100.00
2018-05-10T21:20:03.971Z,100.00
2018-05-10T21:22:32.597Z,100.00
2018-05-10T21:25:00.193Z,100.00
2018-05-10T21:27:27.825Z,100.00
2018-05-10T21:29:55.429Z,100.00
2018-05-10T21:32:23.033Z,100.00
2018-05-10T21:34:50.688Z,100.00
2018-05-10T21:37:18.377Z,100.00
2018-05-10T21:39:45.977Z,100.00
2018-05-10T21:42:13.623Z,100.00
2018-05-10T21:44:41.266Z,100.00
2018-05-10T21:47:08.855Z,100.00
2018-05-10T21:49:48.184Z,100.00
2018-05-10T21:52:15.776Z,100.00
2018-05-10T21:54:43.376Z,100.00
2018-05-10T21:57:11.005Z,100.00
2018-05-10T21:59:38.597Z,100.00
2018-05-10T22:02:06.223Z,100.00
2018-05-10T22:04:33.841Z,100.00
2018-05-10T22:07:01.481Z,100.00
2018-05-10T22:09:29.094Z,100.00
2018-05-10T22:11:56.728Z,100.00
2018-05-10T22:14:24.361Z,100.00
2018-05-10T22:16:51.970Z,100.00
2018-05-10T22:19:19.584Z,100.00
2018-05-10T22:21:47.192Z,100.00
2018-05-10T22:24:14.806Z,100.00
2018-05-10T22:26:42.460Z,100.00
2018-05-10T22:29:10.055Z,100.00
2018-05-10T22:31:37.662Z,100.00
2018-05-10T22:34:05.313Z,100.00
2018-05-10T22:36:32.902Z,100.00
2018-05-10T22:39:04.097Z,100.00
2018-05-10T22:41:31.718Z,100.00
2018-05-10T22:43:59.378Z,100.00
2018-05-10T22:46:27.006Z,100.00
2018-05-10T22:48:54.590Z,100.00
2018-05-10T22:51:23.105Z,100.00
2018-05-10T22:53:50.744Z,100.00
2018-05-10T22:56:18.365Z,100.00
2018-05-10T22:58:45.958Z,100.00
2018-05-10T23:01:13.676Z,100.00
2018-05-10T23:03:41.313Z,100.00
2018-05-10T23:06:11.225Z,100.00
2018-05-10T23:08:38.880Z,100.00
2018-05-10T23:11:06.487Z,100.00
2018-05-10T23:13:34.106Z,100.00
2018-05-10T23:16:01.753Z,100.00
2018-05-10T23:18:29.357Z,100.00
2018-05-10T23:20:56.974Z,100.00
2018-05-10T23:23:24.633Z,100.00
2018-05-10T23:25:52.228Z,100.00
2018-05-10T23:28:19.849Z,100.00
2018-05-10T23:30:47.501Z,100.00
2018-05-10T23:33:15.099Z,100.00
2018-05-10T23:35:42.694Z,100.00
2018-05-10T23:38:10.312Z,100.00
2018-05-10T23:40:37.907Z,100.00
2018-05-10T23:43:05.501Z,100.00
2018-05-10T23:45:33.136Z,100.00
2018-05-10T23:48:00.775Z,100.00
2018-05-10T23:50:28.366Z,100.00
2018-05-10T23:52:56.006Z,100.00
2018-05-10T23:55:23.641Z,100.00
2018-05-10T23:57:51.244Z,100.00
